createdAt,value
2017-12-26T00:02:05.016Z,78.10
2017-12-26T00:04:32.646Z,78.60
2017-12-26T00:07:00.227Z,78.90
2017-12-26T00:09:28.714Z,78.40
2017-12-26T00:11:56.318Z,78.50
2017-12-26T00:14:23.935Z,78.60
2017-12-26T00:16:51.571Z,78.60
2017-12-26T00:19:19.174Z,79.10
2017-12-26T00:21:46.791Z,79.00
2017-12-26T00:24:15.166Z,79.50
2017-12-26T00:26:43.023Z,79.50
2017-12-26T00:29:11.376Z,80.20
2017-12-26T00:31:39.205Z,79.30
2017-12-26T00:34:07.032Z,81.00
2017-12-26T00:36:34.652Z,79.80
2017-12-26T00:39:02.212Z,79.90
2017-12-26T00:41:29.826Z,80.00
2017-12-26T00:43:58.198Z,80.20
2017-12-26T00:46:25.812Z,80.10
2017-12-26T00:48:53.373Z,79.90
2017-12-26T00:51:20.986Z,80.10
2017-12-26T00:53:48.620Z,80.40
2017-12-26T00:56:16.255Z,80.70
2017-12-26T00:58:43.899Z,80.40
2017-12-26T01:01:11.520Z,80.30
2017-12-26T01:03:39.143Z,80.60
2017-12-26T01:06:06.742Z,80.80
2017-12-26T01:08:35.120Z,80.60
2017-12-26T01:11:02.935Z,80.70
2017-12-26T01:13:30.504Z,81.60
2017-12-26T01:15:58.114Z,80.90
2017-12-26T01:18:26.502Z,80.50
2017-12-26T01:20:54.827Z,80.80
2017-12-26T01:23:22.486Z,80.80
2017-12-26T01:25:50.083Z,80.70
2017-12-26T01:28:17.645Z,80.80
2017-12-26T01:30:45.318Z,81.20
2017-12-26T01:33:13.667Z,81.40
2017-12-26T01:35:41.343Z,81.20
2017-12-26T01:38:08.972Z,81.20
2017-12-26T01:40:36.583Z,81.60
2017-12-26T01:43:04.194Z,81.40
2017-12-26T01:45:31.944Z,81.40
2017-12-26T01:47:59.519Z,81.10
2017-12-26T01:50:27.157Z,81.80
2017-12-26T01:52:54.744Z,81.50
2017-12-26T01:55:22.479Z,81.60
2017-12-26T01:57:50.114Z,81.20
2017-12-26T02:00:18.539Z,80.80
2017-12-26T02:02:46.130Z,80.80
2017-12-26T02:05:14.587Z,80.70
2017-12-26T02:07:42.157Z,81.00
2017-12-26T02:10:10.527Z,80.80
2017-12-26T02:12:38.084Z,80.90
2017-12-26T02:15:05.850Z,80.90
2017-12-26T02:17:34.081Z,80.80
2017-12-26T02:20:01.639Z,80.80
2017-12-26T02:22:30.018Z,81.20
2017-12-26T02:24:57.762Z,81.20
2017-12-26T02:27:25.343Z,80.90
2017-12-26T02:29:52.962Z,80.80
2017-12-26T02:32:20.572Z,80.90
2017-12-26T02:34:48.977Z,81.10
2017-12-26T02:37:16.560Z,81.00
2017-12-26T02:39:44.305Z,80.80
2017-12-26T02:42:11.889Z,80.70
2017-12-26T02:44:39.499Z,81.90
2017-12-26T02:47:07.075Z,80.90
2017-12-26T02:49:34.688Z,81.20
2017-12-26T02:52:02.265Z,80.70
2017-12-26T02:54:29.870Z,80.30
2017-12-26T02:56:57.591Z,80.70
2017-12-26T02:59:25.353Z,80.70
2017-12-26T03:01:52.957Z,80.90
2017-12-26T03:04:20.579Z,80.90
2017-12-26T03:06:48.780Z,80.50
2017-12-26T03:09:16.396Z,80.40
2017-12-26T03:11:44.737Z,80.40
2017-12-26T03:14:12.314Z,80.30
2017-12-26T03:16:41.203Z,80.60
2017-12-26T03:19:09.630Z,80.40
2017-12-26T03:21:37.534Z,80.30
2017-12-26T03:24:05.151Z,80.20
2017-12-26T03:26:32.880Z,81.00
2017-12-26T03:29:00.503Z,81.20
2017-12-26T03:31:28.742Z,80.10
2017-12-26T03:33:56.335Z,80.40
2017-12-26T03:36:23.929Z,80.00
2017-12-26T03:38:51.559Z,80.20
2017-12-26T03:41:19.138Z,80.10
2017-12-26T03:43:46.749Z,80.00
2017-12-26T03:46:15.095Z,80.70
2017-12-26T03:48:42.709Z,80.70
2017-12-26T03:51:11.651Z,80.80
2017-12-26T03:53:39.266Z,80.80
2017-12-26T03:56:06.847Z,80.30
2017-12-26T03:58:34.468Z,80.50
2017-12-26T04:01:02.078Z,80.00
2017-12-26T04:03:29.926Z,79.50
2017-12-26T04:05:57.500Z,80.10
2017-12-26T04:08:25.144Z,80.00
2017-12-26T04:10:52.722Z,80.30
2017-12-26T04:13:20.541Z,80.10
2017-12-26T04:15:48.115Z,80.20
2017-12-26T04:18:15.721Z,79.80
2017-12-26T04:20:43.353Z,79.80
2017-12-26T04:23:11.087Z,80.00
2017-12-26T04:25:39.499Z,80.50
2017-12-26T04:28:07.131Z,80.00
2017-12-26T04:30:35.538Z,80.60
2017-12-26T04:33:03.163Z,80.20
2017-12-26T04:35:30.791Z,79.70
2017-12-26T04:37:58.396Z,79.60
2017-12-26T04:40:26.772Z,80.00
2017-12-26T04:42:55.151Z,79.80
2017-12-26T04:45:23.658Z,79.80
2017-12-26T04:47:51.428Z,79.80
2017-12-26T04:50:19.573Z,79.40
2017-12-26T04:52:47.953Z,79.40
2017-12-26T04:55:16.287Z,79.60
2017-12-26T04:57:43.861Z,79.60
2017-12-26T05:00:11.657Z,79.50
2017-12-26T05:02:39.216Z,79.60
2017-12-26T05:05:06.923Z,79.90
2017-12-26T05:07:34.494Z,79.80
2017-12-26T05:10:02.068Z,79.70
2017-12-26T05:12:29.653Z,79.70
2017-12-26T05:14:57.239Z,79.80
2017-12-26T05:17:24.847Z,79.80
2017-12-26T05:19:52.482Z,80.20
2017-12-26T05:22:20.683Z,80.20
2017-12-26T05:24:48.262Z,80.00
2017-12-26T05:27:15.843Z,80.10
2017-12-26T05:29:43.436Z,80.40
2017-12-26T05:32:11.046Z,79.90
2017-12-26T05:34:38.636Z,80.20
2017-12-26T05:37:06.362Z,80.10
2017-12-26T05:39:33.956Z,80.40
2017-12-26T05:42:01.628Z,80.40
2017-12-26T05:44:29.198Z,80.30
2017-12-26T05:46:58.331Z,80.50
2017-12-26T05:49:26.172Z,80.40
2017-12-26T05:51:53.726Z,80.50
2017-12-26T05:54:21.651Z,80.50
2017-12-26T05:56:49.976Z,80.40
2017-12-26T05:59:17.586Z,80.50
2017-12-26T06:01:46.070Z,80.60
2017-12-26T06:04:13.674Z,80.70
2017-12-26T06:06:41.263Z,80.70
2017-12-26T06:09:08.846Z,80.70
2017-12-26T06:11:36.460Z,80.80
2017-12-26T06:14:04.038Z,80.80
2017-12-26T06:16:32.816Z,80.70
2017-12-26T06:19:00.579Z,80.70
2017-12-26T06:21:28.165Z,80.70
2017-12-26T06:23:55.802Z,80.90
2017-12-26T06:26:23.421Z,80.70
2017-12-26T06:28:51.858Z,80.80
2017-12-26T06:31:19.444Z,80.70
2017-12-26T06:33:47.087Z,80.90
2017-12-26T06:36:14.841Z,81.10
2017-12-26T06:38:43.333Z,80.90
2017-12-26T06:41:10.901Z,81.20
2017-12-26T06:43:38.557Z,81.00
2017-12-26T06:46:06.135Z,81.00
2017-12-26T06:48:33.750Z,81.10
2017-12-26T06:51:01.391Z,81.20
2017-12-26T06:53:28.990Z,81.20
2017-12-26T06:55:56.610Z,81.10
2017-12-26T06:58:24.519Z,81.00
2017-12-26T07:00:52.959Z,80.90
2017-12-26T07:03:20.885Z,80.90
2017-12-26T07:05:48.535Z,81.20
2017-12-26T07:08:16.106Z,81.10
2017-12-26T07:10:43.736Z,80.80
2017-12-26T07:13:11.315Z,80.90
2017-12-26T07:15:38.917Z,80.50
2017-12-26T07:18:07.196Z,80.40
2017-12-26T07:20:40.522Z,80.40
2017-12-26T07:23:08.104Z,80.50
2017-12-26T07:25:35.682Z,80.10
2017-12-26T07:28:03.277Z,80.10
2017-12-26T07:30:31.697Z,79.60
2017-12-26T07:33:00.066Z,79.60
2017-12-26T07:35:27.666Z,79.50
2017-12-26T07:37:55.409Z,79.20
2017-12-26T07:40:23.524Z,79.00
2017-12-26T07:42:51.866Z,78.80
2017-12-26T07:45:19.500Z,78.80
2017-12-26T07:47:47.492Z,78.60
2017-12-26T07:50:15.255Z,78.60
2017-12-26T07:52:42.845Z,78.30
2017-12-26T07:55:10.631Z,78.10
2017-12-26T07:57:39.003Z,78.10
2017-12-26T08:00:06.570Z,78.10
2017-12-26T08:02:34.918Z,78.10
2017-12-26T08:05:02.541Z,78.10
2017-12-26T08:07:30.102Z,77.90
2017-12-26T08:09:57.703Z,78.00
2017-12-26T08:12:25.348Z,77.70
2017-12-26T08:14:52.978Z,77.40
2017-12-26T08:17:20.586Z,77.20
2017-12-26T08:19:48.620Z,77.40
2017-12-26T08:22:16.372Z,77.50
2017-12-26T08:24:44.993Z,77.40
2017-12-26T08:27:12.634Z,77.60
2017-12-26T08:29:41.109Z,77.20
2017-12-26T08:32:08.771Z,77.00
2017-12-26T08:34:36.379Z,76.60
2017-12-26T08:37:04.097Z,77.60
2017-12-26T08:39:33.839Z,77.80
2017-12-26T08:42:01.467Z,77.80
2017-12-26T08:44:29.587Z,76.80
2017-12-26T08:46:57.231Z,77.00
2017-12-26T08:49:24.819Z,77.10
2017-12-26T08:51:53.204Z,77.10
2017-12-26T08:54:20.750Z,77.10
2017-12-26T08:56:48.845Z,77.10
2017-12-26T08:59:17.221Z,77.50
2017-12-26T09:01:44.840Z,77.40
2017-12-26T09:04:12.754Z,76.90
2017-12-26T09:06:40.345Z,77.00
2017-12-26T09:09:07.990Z,76.80
2017-12-26T09:11:35.771Z,77.00
2017-12-26T09:14:03.398Z,77.50
2017-12-26T09:16:31.768Z,76.80
2017-12-26T09:19:00.392Z,76.70
2017-12-26T09:21:28.056Z,76.50
2017-12-26T09:23:55.645Z,76.40
2017-12-26T09:26:23.715Z,76.30
2017-12-26T09:28:51.390Z,76.10
2017-12-26T09:31:19.588Z,76.30
2017-12-26T09:33:47.935Z,75.90
2017-12-26T09:36:15.625Z,76.10
2017-12-26T09:38:43.975Z,75.90
2017-12-26T09:41:11.716Z,75.40
2017-12-26T09:43:39.378Z,75.30
2017-12-26T09:46:07.015Z,75.10
2017-12-26T09:48:35.188Z,74.60
2017-12-26T09:51:03.101Z,74.70
2017-12-26T09:53:30.759Z,74.40
2017-12-26T09:55:58.379Z,74.10
2017-12-26T09:58:25.962Z,73.50
2017-12-26T10:00:53.574Z,73.90
2017-12-26T10:03:21.980Z,73.60
2017-12-26T10:05:49.720Z,73.20
2017-12-26T10:08:17.351Z,73.70
2017-12-26T10:10:44.993Z,73.30
2017-12-26T10:13:12.644Z,73.10
2017-12-26T10:15:40.294Z,73.40
2017-12-26T10:18:07.937Z,72.30
2017-12-26T10:20:35.536Z,71.90
2017-12-26T10:23:03.114Z,71.80
2017-12-26T10:25:30.705Z,71.80
2017-12-26T10:27:58.324Z,70.90
2017-12-26T10:30:25.960Z,70.60
2017-12-26T10:32:53.594Z,70.20
2017-12-26T10:35:21.208Z,70.50
2017-12-26T10:37:49.525Z,69.90
2017-12-26T10:40:17.233Z,69.70
2017-12-26T10:42:44.827Z,69.50
2017-12-26T10:45:12.428Z,69.50
2017-12-26T10:47:40.124Z,69.40
2017-12-26T10:50:07.699Z,69.10
2017-12-26T10:52:35.310Z,69.50
2017-12-26T10:55:02.918Z,68.50
2017-12-26T10:57:30.562Z,68.60
2017-12-26T10:59:58.182Z,68.60
2017-12-26T11:02:27.955Z,68.30
2017-12-26T11:04:55.523Z,68.80
2017-12-26T11:07:23.144Z,67.90
2017-12-26T11:09:50.717Z,68.00
2017-12-26T11:12:19.054Z,68.00
2017-12-26T11:14:47.403Z,68.30
2017-12-26T11:17:15.042Z,68.30
2017-12-26T11:19:42.639Z,67.90
2017-12-26T11:22:10.255Z,69.20
2017-12-26T11:24:37.880Z,68.80
2017-12-26T11:27:05.626Z,68.70
2017-12-26T11:29:33.357Z,68.80
2017-12-26T11:32:00.994Z,68.60
2017-12-26T11:34:28.583Z,68.70
2017-12-26T11:36:56.188Z,68.90
2017-12-26T11:39:23.902Z,68.10
2017-12-26T11:41:51.483Z,67.90
2017-12-26T11:44:19.120Z,67.60
2017-12-26T11:46:46.933Z,68.20
2017-12-26T11:49:16.110Z,67.30
2017-12-26T11:51:43.678Z,67.30
2017-12-26T11:54:11.354Z,67.30
2017-12-26T11:56:38.967Z,67.10
2017-12-26T11:59:08.096Z,66.20
2017-12-26T12:01:35.678Z,66.20
2017-12-26T12:04:04.172Z,66.50
2017-12-26T12:06:31.770Z,66.10
2017-12-26T12:08:59.657Z,66.20
2017-12-26T12:11:27.247Z,66.10
2017-12-26T12:13:55.717Z,65.90
2017-12-26T12:16:23.282Z,65.90
2017-12-26T12:18:50.892Z,66.70
2017-12-26T12:21:18.455Z,67.30
2017-12-26T12:23:46.228Z,66.20
2017-12-26T12:26:13.849Z,66.10
2017-12-26T12:28:41.421Z,65.00
2017-12-26T12:31:09.047Z,63.80
2017-12-26T12:33:36.796Z,63.30
2017-12-26T12:36:04.525Z,63.20
2017-12-26T12:38:32.084Z,63.30
2017-12-26T12:40:59.696Z,62.80
2017-12-26T12:43:27.258Z,64.00
2017-12-26T12:45:54.874Z,64.40
2017-12-26T12:48:22.480Z,63.20
2017-12-26T12:50:50.144Z,63.30
2017-12-26T12:53:18.577Z,63.80
2017-12-26T12:55:46.300Z,63.80
2017-12-26T12:58:13.934Z,63.50
2017-12-26T13:00:41.751Z,64.90
2017-12-26T13:03:09.425Z,65.90
2017-12-26T13:05:37.260Z,65.70
2017-12-26T13:08:04.879Z,65.00
2017-12-26T13:10:33.343Z,68.70
2017-12-26T13:13:00.937Z,67.80
2017-12-26T13:15:28.588Z,66.30
2017-12-26T13:17:57.055Z,65.70
2017-12-26T13:20:24.698Z,63.80
2017-12-26T13:22:52.481Z,64.70
2017-12-26T13:25:20.076Z,63.40
2017-12-26T13:27:47.696Z,63.40
2017-12-26T13:30:15.309Z,64.40
2017-12-26T13:32:43.722Z,64.40
2017-12-26T13:35:11.398Z,64.40
2017-12-26T13:37:38.968Z,63.30
2017-12-26T13:40:06.661Z,63.30
2017-12-26T13:42:34.222Z,65.30
2017-12-26T13:45:02.195Z,64.80
2017-12-26T13:47:31.293Z,63.60
2017-12-26T13:49:59.596Z,63.50
2017-12-26T13:52:27.204Z,65.70
2017-12-26T13:54:54.790Z,63.80
2017-12-26T13:57:23.158Z,68.30
2017-12-26T13:59:50.939Z,68.30
2017-12-26T14:02:19.306Z,68.80
2017-12-26T14:04:47.389Z,68.30
2017-12-26T14:07:16.212Z,71.60
2017-12-26T14:09:44.425Z,71.60
2017-12-26T14:12:12.009Z,71.00
2017-12-26T14:14:39.664Z,70.80
2017-12-26T14:17:07.436Z,71.90
2017-12-26T14:19:35.088Z,71.20
2017-12-26T14:22:02.695Z,72.10
2017-12-26T14:24:30.528Z,72.20
2017-12-26T14:26:58.141Z,71.70
2017-12-26T14:29:25.767Z,74.20
2017-12-26T14:31:53.435Z,73.00
2017-12-26T14:34:21.066Z,73.30
2017-12-26T14:36:49.020Z,73.50
2017-12-26T14:39:16.770Z,73.70
2017-12-26T14:41:44.339Z,74.10
2017-12-26T14:44:11.957Z,73.30
2017-12-26T14:46:39.592Z,74.50
2017-12-26T14:49:07.212Z,74.70
2017-12-26T14:51:34.791Z,74.60
2017-12-26T14:54:02.418Z,75.40
2017-12-26T14:56:30.041Z,74.70
2017-12-26T14:58:58.625Z,76.00
2017-12-26T15:01:26.214Z,75.90
2017-12-26T15:03:53.899Z,74.70
2017-12-26T15:06:21.539Z,75.60
2017-12-26T15:08:49.120Z,75.10
2017-12-26T15:11:16.785Z,74.90
2017-12-26T15:13:44.364Z,75.80
2017-12-26T15:16:12.157Z,75.40
2017-12-26T15:18:40.481Z,75.30
2017-12-26T15:21:08.552Z,75.30
2017-12-26T15:23:36.215Z,76.10
2017-12-26T15:26:05.461Z,75.00
2017-12-26T15:28:33.072Z,75.80
2017-12-26T15:31:00.672Z,75.50
2017-12-26T15:33:28.309Z,75.60
2017-12-26T15:35:55.910Z,76.50
2017-12-26T15:38:24.298Z,75.20
2017-12-26T15:40:52.103Z,75.20
2017-12-26T15:43:19.943Z,76.10
2017-12-26T15:45:49.016Z,76.30
2017-12-26T15:48:16.574Z,76.30
2017-12-26T15:50:44.931Z,75.50
2017-12-26T15:53:13.174Z,75.50
2017-12-26T15:55:40.780Z,77.00
2017-12-26T15:58:10.444Z,75.40
2017-12-26T16:00:38.093Z,75.90
2017-12-26T16:03:05.708Z,77.20
2017-12-26T16:05:34.150Z,76.80
2017-12-26T16:08:01.716Z,77.60
2017-12-26T16:10:29.346Z,76.30
2017-12-26T16:12:56.915Z,76.20
2017-12-26T16:15:24.496Z,76.50
2017-12-26T16:17:52.798Z,76.10
2017-12-26T16:20:20.824Z,76.40
2017-12-26T16:22:48.379Z,76.10
2017-12-26T16:25:15.987Z,76.00
2017-12-26T16:27:43.616Z,75.90
2017-12-26T16:30:11.206Z,75.50
2017-12-26T16:32:38.879Z,76.10
2017-12-26T16:35:06.619Z,75.70
2017-12-26T16:37:34.178Z,75.90
2017-12-26T16:40:02.694Z,73.90
2017-12-26T16:42:30.520Z,74.00
2017-12-26T16:44:58.145Z,73.70
2017-12-26T16:47:25.788Z,74.30
2017-12-26T16:49:54.149Z,75.70
2017-12-26T16:52:22.020Z,74.90
2017-12-26T16:54:51.079Z,75.10
2017-12-26T16:57:21.003Z,73.90
2017-12-26T16:59:48.887Z,73.90
2017-12-26T17:02:16.516Z,74.50
2017-12-26T17:04:44.066Z,74.50
2017-12-26T17:07:11.804Z,75.00
2017-12-26T17:09:40.238Z,73.90
2017-12-26T17:12:07.887Z,73.90
2017-12-26T17:14:35.759Z,74.30
2017-12-26T17:17:03.384Z,72.60
2017-12-26T17:19:31.219Z,74.40
2017-12-26T17:22:00.794Z,71.00
2017-12-26T17:24:28.377Z,72.30
2017-12-26T17:26:56.873Z,71.20
2017-12-26T17:29:25.283Z,71.20
2017-12-26T17:31:52.983Z,70.60
2017-12-26T17:34:21.674Z,71.70
2017-12-26T17:36:50.196Z,71.70
2017-12-26T17:39:18.633Z,72.50
2017-12-26T17:41:46.365Z,74.10
2017-12-26T17:44:14.224Z,73.40
2017-12-26T17:46:42.681Z,77.50
2017-12-26T17:49:10.279Z,77.60
2017-12-26T17:51:37.885Z,75.50
2017-12-26T17:54:05.465Z,75.50
2017-12-26T17:56:33.292Z,74.60
2017-12-26T17:59:06.949Z,73.90
2017-12-26T18:01:34.577Z,75.20
2017-12-26T18:04:02.157Z,73.60
2017-12-26T18:06:29.771Z,74.90
2017-12-26T18:08:57.389Z,75.30
2017-12-26T18:11:25.091Z,74.60
2017-12-26T18:13:52.674Z,74.00
2017-12-26T18:16:20.367Z,74.30
2017-12-26T18:18:48.794Z,74.90
2017-12-26T18:21:16.439Z,74.90
2017-12-26T18:23:44.147Z,73.30
2017-12-26T18:26:11.825Z,72.70
2017-12-26T18:31:12.833Z,75.80
2017-12-26T18:33:40.495Z,74.00
2017-12-26T18:36:08.082Z,74.60
2017-12-26T18:38:35.708Z,76.60
2017-12-26T18:41:03.430Z,74.60
2017-12-26T18:43:31.007Z,74.60
2017-12-26T18:45:58.814Z,75.70
2017-12-26T18:48:26.647Z,74.90
2017-12-26T18:50:55.023Z,74.30
2017-12-26T18:53:23.396Z,73.70
2017-12-26T18:55:51.826Z,74.70
2017-12-26T18:58:19.681Z,74.60
2017-12-26T19:00:47.960Z,74.50
2017-12-26T19:03:15.589Z,73.40
2017-12-26T19:05:43.968Z,74.10
2017-12-26T19:08:11.596Z,74.20
2017-12-26T19:10:39.230Z,74.80
2017-12-26T19:13:07.234Z,73.90
2017-12-26T19:15:34.832Z,74.40
2017-12-26T19:18:02.403Z,74.40
2017-12-26T19:20:30.182Z,74.60
2017-12-26T19:22:57.850Z,74.80
2017-12-26T19:25:25.403Z,74.40
2017-12-26T19:27:52.995Z,75.10
2017-12-26T19:30:20.593Z,76.10
2017-12-26T19:32:48.345Z,75.10
2017-12-26T19:35:15.910Z,75.00
2017-12-26T19:37:45.139Z,76.60
2017-12-26T19:40:12.905Z,76.70
2017-12-26T19:42:40.870Z,76.10
2017-12-26T19:45:08.709Z,76.70
2017-12-26T19:47:36.982Z,76.10
2017-12-26T19:50:04.551Z,75.80
2017-12-26T19:52:32.342Z,77.10
2017-12-26T19:55:00.723Z,76.70
2017-12-26T19:57:28.382Z,76.40
2017-12-26T19:59:56.558Z,77.70
2017-12-26T20:02:24.197Z,78.10
2017-12-26T20:04:51.780Z,77.30
2017-12-26T20:07:19.463Z,77.40
2017-12-26T20:09:47.066Z,77.90
2017-12-26T20:12:14.980Z,77.60
2017-12-26T20:14:42.641Z,78.40
2017-12-26T20:17:10.320Z,78.70
2017-12-26T20:19:37.897Z,78.80
2017-12-26T20:22:05.512Z,79.00
2017-12-26T20:24:33.114Z,78.90
2017-12-26T20:27:00.664Z,78.90
2017-12-26T20:29:28.295Z,79.50
2017-12-26T20:31:55.863Z,79.80
2017-12-26T20:34:23.531Z,80.00
2017-12-26T20:36:51.207Z,79.20
2017-12-26T20:39:19.035Z,79.70
2017-12-26T20:41:47.143Z,79.60
2017-12-26T20:44:14.721Z,80.90
2017-12-26T20:46:42.279Z,80.00
2017-12-26T20:49:09.997Z,80.00
2017-12-26T20:51:38.308Z,79.10
2017-12-26T20:54:05.953Z,79.70
2017-12-26T20:56:33.597Z,79.90
2017-12-26T20:59:01.231Z,80.30
2017-12-26T21:01:29.669Z,80.50
2017-12-26T21:03:57.307Z,80.40
2017-12-26T21:06:25.095Z,80.70
2017-12-26T21:08:52.923Z,80.30
2017-12-26T21:11:20.565Z,79.60
2017-12-26T21:13:48.185Z,79.60
2017-12-26T21:16:15.750Z,80.00
2017-12-26T21:18:43.338Z,79.90
2017-12-26T21:21:10.904Z,80.10
2017-12-26T21:23:38.522Z,79.80
2017-12-26T21:26:06.117Z,80.30
2017-12-26T21:28:33.768Z,80.10
2017-12-26T21:31:01.324Z,80.20
2017-12-26T21:33:29.001Z,80.00
2017-12-26T21:35:56.565Z,80.20
2017-12-26T21:38:24.184Z,80.20
2017-12-26T21:40:51.746Z,80.40
2017-12-26T21:43:19.363Z,80.30
2017-12-26T21:45:47.401Z,80.40
2017-12-26T21:48:14.966Z,80.30
2017-12-26T21:50:42.573Z,80.30
2017-12-26T21:53:10.798Z,80.30
2017-12-26T21:55:39.079Z,80.60
2017-12-26T21:58:06.661Z,80.30
2017-12-26T22:00:35.022Z,80.90
2017-12-26T22:03:02.618Z,80.20
2017-12-26T22:05:30.193Z,80.00
2017-12-26T22:07:57.794Z,79.80
2017-12-26T22:10:25.355Z,80.10
2017-12-26T22:12:52.918Z,80.30
2017-12-26T22:15:20.533Z,79.90
2017-12-26T22:17:48.559Z,79.90
2017-12-26T22:20:16.340Z,80.00
2017-12-26T22:22:43.955Z,80.10
2017-12-26T22:25:11.643Z,80.30
2017-12-26T22:27:39.809Z,80.40
2017-12-26T22:30:08.365Z,80.50
2017-12-26T22:32:36.019Z,80.50
2017-12-26T22:35:03.628Z,80.30
2017-12-26T22:37:36.301Z,80.50
2017-12-26T22:40:03.945Z,80.60
2017-12-26T22:42:31.567Z,80.60
2017-12-26T22:44:59.281Z,81.00
2017-12-26T22:47:26.915Z,81.90
2017-12-26T22:49:54.540Z,80.90
2017-12-26T22:52:22.111Z,81.00
2017-12-26T22:54:49.725Z,81.20
2017-12-26T22:57:18.822Z,81.00
2017-12-26T22:59:46.492Z,81.00
2017-12-26T23:02:14.120Z,81.40
2017-12-26T23:04:41.730Z,81.10
2017-12-26T23:07:09.316Z,81.20
2017-12-26T23:09:36.898Z,81.40
2017-12-26T23:12:04.468Z,81.50
2017-12-26T23:14:38.459Z,81.20
2017-12-26T23:17:11.728Z,81.20
2017-12-26T23:19:45.844Z,81.10
2017-12-26T23:22:13.435Z,81.10
2017-12-26T23:24:46.800Z,81.20
2017-12-26T23:30:21.921Z,81.30
2017-12-26T23:32:55.218Z,81.30
2017-12-26T23:35:28.540Z,81.50
2017-12-26T23:38:01.898Z,81.40
2017-12-26T23:40:35.076Z,81.50
2017-12-26T23:43:08.187Z,81.60
2017-12-26T23:45:42.893Z,81.80
2017-12-26T23:48:16.902Z,81.80
2017-12-26T23:50:50.049Z,81.70
2017-12-26T23:53:23.241Z,81.70
2017-12-26T23:55:56.441Z,81.60
2017-12-26T23:58:29.554Z,81.70
